createdAt,value
2018-08-31T00:02:07.904Z,27.33
2018-08-31T00:04:47.787Z,26.47
2018-08-31T00:07:32.028Z,23.80
2018-08-31T00:12:41.494Z,31.47
2018-08-31T00:15:10.392Z,34.93
2018-08-31T00:17:40.244Z,26.67
2018-08-31T00:20:10.166Z,23.47
2018-08-31T00:22:38.755Z,29.20
2018-08-31T00:25:19.699Z,24.90
2018-08-31T00:27:59.387Z,29.97
2018-08-31T00:30:39.315Z,26.40
2018-08-31T00:33:19.127Z,25.03
2018-08-31T00:35:58.530Z,25.80
2018-08-31T00:40:52.100Z,25.40
2018-08-31T00:43:43.992Z,22.57
2018-08-31T00:46:12.579Z,34.27
2018-08-31T00:48:41.143Z,26.20
2018-08-31T00:51:09.759Z,27.77
2018-08-31T00:53:38.330Z,21.10
2018-08-31T00:56:06.898Z,25.30
2018-08-31T00:58:35.737Z,26.20
2018-08-31T01:01:04.833Z,23.03
2018-08-31T01:03:33.912Z,18.73
2018-08-31T01:06:03.042Z,23.27
2018-08-31T01:08:31.607Z,21.07
2018-08-31T01:11:00.184Z,22.40
2018-08-31T01:13:28.859Z,30.27
2018-08-31T01:15:57.430Z,28.67
2018-08-31T01:18:26.155Z,22.13
2018-08-31T01:20:54.991Z,23.53
2018-08-31T01:23:23.579Z,25.73
2018-08-31T01:25:52.131Z,23.73
2018-08-31T01:28:20.744Z,23.00
2018-08-31T01:30:49.371Z,27.07
2018-08-31T01:33:17.948Z,21.63
2018-08-31T01:35:46.900Z,23.83
2018-08-31T01:38:15.448Z,23.43
2018-08-31T01:40:44.024Z,18.47
2018-08-31T01:43:12.641Z,19.90
2018-08-31T01:45:41.683Z,25.00
2018-08-31T01:48:10.253Z,24.97
2018-08-31T01:50:42.936Z,21.53
2018-08-31T01:53:11.488Z,17.50
2018-08-31T01:55:40.055Z,19.50
2018-08-31T01:58:08.875Z,28.73
2018-08-31T02:00:37.443Z,22.83
2018-08-31T02:03:06.243Z,25.17
2018-08-31T02:05:35.257Z,18.57
2018-08-31T02:08:03.814Z,22.93
2018-08-31T02:10:32.403Z,14.30
2018-08-31T02:13:01.259Z,21.53
2018-08-31T02:15:29.809Z,23.93
2018-08-31T02:17:58.355Z,20.23
2018-08-31T02:20:27.371Z,39.50
2018-08-31T02:22:55.934Z,19.13
2018-08-31T02:25:24.502Z,21.83
2018-08-31T02:27:53.100Z,21.77
2018-08-31T02:30:21.832Z,17.80
2018-08-31T02:32:50.515Z,18.23
2018-08-31T02:35:19.205Z,18.33
2018-08-31T02:37:47.767Z,30.43
2018-08-31T02:40:16.324Z,21.17
2018-08-31T02:42:44.944Z,17.77
2018-08-31T02:45:13.504Z,19.10
2018-08-31T02:47:42.099Z,16.93
2018-08-31T02:50:10.788Z,27.03
2018-08-31T02:52:39.487Z,23.50
2018-08-31T02:55:08.066Z,26.93
2018-08-31T02:57:36.759Z,19.13
2018-08-31T03:00:05.379Z,24.00
2018-08-31T03:02:33.943Z,24.17
2018-08-31T03:05:02.540Z,17.10
2018-08-31T03:07:31.104Z,20.93
2018-08-31T03:09:59.779Z,22.13
2018-08-31T03:12:28.376Z,21.00
2018-08-31T03:14:57.071Z,22.23
2018-08-31T03:17:25.655Z,19.47
2018-08-31T03:19:54.343Z,21.57
2018-08-31T03:22:22.935Z,23.70
2018-08-31T03:24:51.509Z,19.70
2018-08-31T03:27:20.139Z,21.67
2018-08-31T03:29:48.695Z,18.50
2018-08-31T03:32:17.271Z,17.20
2018-08-31T03:34:46.063Z,19.87
2018-08-31T03:37:14.712Z,17.03
2018-08-31T03:39:43.266Z,16.87
2018-08-31T03:42:11.955Z,23.67
2018-08-31T03:44:40.532Z,16.63
2018-08-31T03:47:09.123Z,23.47
2018-08-31T03:49:37.760Z,13.80
2018-08-31T03:52:06.439Z,18.43
2018-08-31T03:54:35.123Z,17.83
2018-08-31T03:57:03.791Z,16.87
2018-08-31T03:59:32.419Z,14.63
2018-08-31T04:02:00.999Z,18.83
2018-08-31T04:04:29.723Z,15.10
2018-08-31T04:06:58.283Z,17.60
2018-08-31T04:09:27.043Z,14.50
2018-08-31T04:11:55.926Z,13.40
2018-08-31T04:14:24.484Z,16.20
2018-08-31T04:16:53.052Z,14.63
2018-08-31T04:19:21.638Z,21.07
2018-08-31T04:21:50.228Z,15.70
2018-08-31T04:24:18.932Z,18.33
2018-08-31T04:26:47.950Z,24.60
2018-08-31T04:29:16.515Z,22.70
2018-08-31T04:31:45.087Z,16.00
2018-08-31T04:34:14.369Z,17.33
2018-08-31T04:36:43.592Z,12.67
2018-08-31T04:39:13.545Z,17.13
2018-08-31T04:41:43.539Z,15.77
2018-08-31T04:44:12.108Z,9.63
2018-08-31T04:46:41.079Z,18.93
2018-08-31T04:49:09.662Z,16.27
2018-08-31T04:51:38.211Z,13.73
2018-08-31T04:54:07.369Z,16.37
2018-08-31T04:56:35.928Z,14.60
2018-08-31T04:59:04.516Z,22.67
2018-08-31T05:01:33.120Z,17.47
2018-08-31T05:04:01.748Z,16.60
2018-08-31T05:06:30.335Z,19.23
2018-08-31T05:08:59.037Z,18.17
2018-08-31T05:11:27.604Z,14.70
2018-08-31T05:13:56.160Z,14.57
2018-08-31T05:16:24.999Z,9.23
2018-08-31T05:18:53.567Z,16.70
2018-08-31T05:21:22.143Z,12.83
2018-08-31T05:23:50.812Z,13.83
2018-08-31T05:26:19.368Z,14.03
2018-08-31T05:28:47.976Z,12.20
2018-08-31T05:31:16.559Z,12.80
2018-08-31T05:33:46.111Z,20.90
2018-08-31T05:36:14.677Z,19.17
2018-08-31T05:38:43.343Z,18.77
2018-08-31T05:41:11.929Z,20.83
2018-08-31T05:43:40.482Z,27.17
2018-08-31T05:46:09.083Z,35.87
2018-08-31T05:48:37.647Z,26.27
2018-08-31T05:51:06.569Z,15.90
2018-08-31T05:53:35.368Z,44.83
2018-08-31T05:56:03.899Z,41.63
2018-08-31T05:58:32.451Z,29.63
2018-08-31T06:01:01.060Z,31.53
2018-08-31T06:03:29.623Z,16.23
2018-08-31T06:05:58.187Z,24.63
2018-08-31T06:08:26.779Z,21.43
2018-08-31T06:10:55.335Z,17.40
2018-08-31T06:13:23.955Z,24.77
2018-08-31T06:15:52.619Z,19.73
2018-08-31T06:18:21.193Z,14.70
2018-08-31T06:20:49.770Z,12.30
2018-08-31T06:23:18.387Z,12.70
2018-08-31T06:25:46.948Z,12.60
2018-08-31T06:28:15.495Z,13.30
2018-08-31T06:30:44.207Z,20.50
2018-08-31T06:33:12.771Z,16.80
2018-08-31T06:35:41.330Z,11.57
2018-08-31T06:38:10.267Z,20.33
2018-08-31T06:40:38.920Z,21.90
2018-08-31T06:43:07.448Z,30.67
2018-08-31T06:45:36.107Z,22.30
2018-08-31T06:48:04.692Z,36.87
2018-08-31T06:50:33.255Z,19.73
2018-08-31T06:53:01.839Z,32.00
2018-08-31T06:55:30.395Z,27.20
2018-08-31T06:57:58.971Z,24.20
2018-08-31T07:00:27.648Z,21.27
2018-08-31T07:02:56.185Z,23.90
2018-08-31T07:05:24.760Z,26.07
2018-08-31T07:07:53.555Z,24.50
2018-08-31T07:10:22.123Z,26.30
2018-08-31T07:12:50.700Z,28.23
2018-08-31T07:15:19.695Z,39.07
2018-08-31T07:17:48.275Z,30.03
2018-08-31T07:20:16.864Z,25.13
2018-08-31T07:22:45.813Z,26.10
2018-08-31T07:25:14.484Z,21.93
2018-08-31T07:27:43.078Z,21.37
2018-08-31T07:30:12.063Z,32.50
2018-08-31T07:32:40.633Z,17.20
2018-08-31T07:35:09.224Z,15.13
2018-08-31T07:37:37.820Z,15.17
2018-08-31T07:40:06.819Z,21.33
2018-08-31T07:42:35.404Z,15.90
2018-08-31T07:45:04.232Z,18.87
2018-08-31T07:47:32.796Z,12.70
2018-08-31T07:50:01.359Z,12.67
2018-08-31T07:52:30.024Z,17.40
2018-08-31T07:54:58.657Z,14.53
2018-08-31T07:57:27.227Z,14.57
2018-08-31T07:59:55.807Z,18.67
2018-08-31T08:02:24.359Z,14.13
2018-08-31T08:04:52.920Z,22.63
2018-08-31T08:07:21.673Z,18.87
2018-08-31T08:09:50.195Z,23.77
2018-08-31T08:12:18.755Z,13.63
2018-08-31T08:14:47.831Z,12.03
2018-08-31T08:17:16.303Z,27.50
2018-08-31T08:19:44.925Z,15.03
2018-08-31T08:22:14.088Z,17.27
2018-08-31T08:24:42.668Z,12.33
2018-08-31T08:27:11.254Z,13.40
2018-08-31T08:29:39.855Z,10.10
2018-08-31T08:32:08.460Z,12.37
2018-08-31T08:34:37.036Z,15.70
2018-08-31T08:37:05.831Z,31.37
2018-08-31T08:39:34.459Z,17.87
2018-08-31T08:42:03.111Z,15.43
2018-08-31T08:44:31.862Z,22.37
2018-08-31T08:47:00.515Z,14.67
2018-08-31T08:49:29.100Z,10.90
2018-08-31T08:51:57.713Z,13.37
2018-08-31T08:54:26.283Z,15.27
2018-08-31T08:56:55.156Z,12.33
2018-08-31T08:59:24.173Z,18.40
2018-08-31T09:01:52.746Z,31.43
2018-08-31T09:04:21.309Z,15.53
2018-08-31T09:06:49.907Z,15.03
2018-08-31T09:09:18.475Z,18.60
2018-08-31T09:11:47.053Z,12.50
2018-08-31T09:14:15.640Z,14.07
2018-08-31T09:16:44.203Z,21.20
2018-08-31T09:19:12.775Z,33.07
2018-08-31T09:21:41.488Z,13.90
2018-08-31T09:24:10.079Z,28.73
2018-08-31T09:26:38.648Z,26.97
2018-08-31T09:29:07.320Z,17.40
2018-08-31T09:31:35.904Z,12.43
2018-08-31T09:34:04.468Z,20.63
2018-08-31T09:36:33.052Z,20.50
2018-08-31T09:39:01.596Z,19.87
2018-08-31T09:41:30.211Z,16.27
2018-08-31T09:43:59.177Z,20.83
2018-08-31T09:46:27.675Z,17.70
2018-08-31T09:48:56.256Z,16.00
2018-08-31T09:51:24.932Z,18.40
2018-08-31T09:53:53.529Z,22.27
2018-08-31T09:56:22.094Z,12.40
2018-08-31T09:58:50.824Z,17.20
2018-08-31T10:01:24.607Z,15.37
2018-08-31T10:03:53.318Z,19.43
2018-08-31T10:06:21.860Z,22.80
2018-08-31T10:08:50.415Z,19.30
2018-08-31T10:11:19.359Z,17.00
2018-08-31T10:13:47.912Z,23.87
2018-08-31T10:16:16.542Z,28.63
2018-08-31T10:18:45.169Z,21.47
2018-08-31T10:21:13.715Z,18.70
2018-08-31T10:23:42.287Z,22.70
2018-08-31T10:26:11.195Z,15.03
2018-08-31T10:28:40.035Z,20.87
2018-08-31T10:31:08.599Z,18.53
2018-08-31T10:33:37.544Z,18.00
2018-08-31T10:36:06.639Z,21.20
2018-08-31T10:38:35.180Z,29.20
2018-08-31T10:41:04.112Z,21.60
2018-08-31T10:43:32.697Z,22.40
2018-08-31T10:46:01.255Z,24.60
2018-08-31T10:48:29.851Z,18.23
2018-08-31T10:50:58.408Z,25.37
2018-08-31T10:53:26.967Z,31.07
2018-08-31T10:55:55.572Z,26.87
2018-08-31T10:58:24.127Z,37.87
2018-08-31T11:00:52.755Z,20.53
2018-08-31T11:03:21.563Z,33.67
2018-08-31T11:05:50.112Z,24.03
2018-08-31T11:08:18.727Z,24.80
2018-08-31T11:10:47.411Z,30.17
2018-08-31T11:13:15.960Z,25.60
2018-08-31T11:15:44.579Z,27.83
2018-08-31T11:18:13.190Z,31.67
2018-08-31T11:20:41.767Z,23.03
2018-08-31T11:23:10.355Z,34.53
2018-08-31T11:25:38.984Z,24.23
2018-08-31T11:28:07.603Z,25.20
2018-08-31T11:30:36.181Z,33.00
2018-08-31T11:33:05.038Z,43.07
2018-08-31T11:35:33.615Z,33.50
2018-08-31T11:38:02.191Z,36.73
2018-08-31T11:40:30.912Z,35.93
2018-08-31T11:42:59.512Z,45.10
2018-08-31T11:45:28.114Z,25.23
2018-08-31T11:47:56.723Z,28.40
2018-08-31T11:50:25.295Z,29.80
2018-08-31T11:52:53.855Z,33.27
2018-08-31T11:55:22.865Z,35.70
2018-08-31T11:57:51.365Z,36.47
2018-08-31T12:00:20.043Z,43.13
2018-08-31T12:02:48.636Z,41.10
2018-08-31T12:05:17.200Z,41.50
2018-08-31T12:07:45.771Z,43.00
2018-08-31T12:10:14.468Z,39.90
2018-08-31T12:12:43.036Z,38.70
2018-08-31T12:15:11.605Z,36.67
2018-08-31T12:17:40.287Z,41.27
2018-08-31T12:20:09.296Z,38.30
2018-08-31T12:22:37.960Z,35.40
2018-08-31T12:25:08.938Z,42.07
2018-08-31T12:27:38.799Z,38.40
2018-08-31T12:30:08.136Z,36.70
2018-08-31T12:32:37.276Z,42.40
2018-08-31T12:35:06.349Z,38.80
2018-08-31T12:37:35.503Z,36.13
2018-08-31T12:40:04.604Z,42.67
2018-08-31T12:42:33.363Z,34.97
2018-08-31T12:45:02.351Z,40.07
2018-08-31T12:47:30.926Z,36.40
2018-08-31T12:50:00.379Z,32.97
2018-08-31T12:52:29.143Z,40.73
2018-08-31T12:54:57.746Z,36.13
2018-08-31T12:57:26.423Z,39.43
2018-08-31T12:59:59.635Z,35.43
2018-08-31T13:02:29.575Z,39.83
2018-08-31T13:04:58.140Z,40.77
2018-08-31T13:07:27.175Z,30.43
2018-08-31T13:12:34.100Z,39.97
2018-08-31T13:15:02.971Z,40.07
2018-08-31T13:17:31.663Z,41.07
2018-08-31T13:20:00.506Z,35.63
2018-08-31T13:22:29.411Z,39.83
2018-08-31T13:24:58.041Z,35.47
2018-08-31T13:27:26.671Z,33.93
2018-08-31T13:29:55.312Z,35.47
2018-08-31T13:32:23.931Z,38.90
2018-08-31T13:34:52.978Z,38.80
2018-08-31T13:37:21.667Z,35.33
2018-08-31T13:39:50.242Z,42.43
2018-08-31T13:42:19.227Z,37.67
2018-08-31T13:44:48.180Z,36.70
2018-08-31T13:47:19.993Z,38.50
2018-08-31T13:49:49.088Z,40.23
2018-08-31T13:52:17.672Z,34.50
2018-08-31T13:54:46.651Z,37.33
2018-08-31T13:57:15.241Z,36.03
2018-08-31T13:59:44.164Z,35.83
2018-08-31T14:02:12.895Z,40.87
2018-08-31T14:04:41.472Z,36.60
2018-08-31T14:07:10.108Z,37.10
2018-08-31T14:09:38.915Z,41.87
2018-08-31T14:12:07.600Z,37.43
2018-08-31T14:14:36.233Z,44.40
2018-08-31T14:17:05.240Z,37.30
2018-08-31T14:19:33.955Z,49.83
2018-08-31T14:22:02.520Z,54.93
2018-08-31T14:24:31.208Z,41.33
2018-08-31T14:26:59.777Z,41.93
2018-08-31T14:29:28.424Z,37.40
2018-08-31T14:31:57.069Z,36.77
2018-08-31T14:34:25.623Z,35.90
2018-08-31T14:36:54.195Z,29.47
2018-08-31T14:39:22.793Z,31.83
2018-08-31T14:41:51.348Z,36.57
2018-08-31T14:44:20.601Z,41.53
2018-08-31T14:46:49.302Z,36.03
2018-08-31T14:49:17.868Z,33.27
2018-08-31T14:51:46.460Z,35.80
2018-08-31T14:54:15.059Z,32.93
2018-08-31T14:56:43.631Z,35.67
2018-08-31T14:59:12.290Z,34.60
2018-08-31T15:01:41.856Z,30.47
2018-08-31T15:04:10.432Z,33.03
2018-08-31T15:06:38.996Z,34.67
2018-08-31T15:09:09.564Z,34.93
2018-08-31T15:11:38.127Z,34.80
2018-08-31T15:14:06.695Z,40.23
2018-08-31T15:16:35.407Z,35.93
2018-08-31T15:19:03.984Z,35.97
2018-08-31T15:21:32.543Z,35.63
2018-08-31T15:24:01.260Z,42.40
2018-08-31T15:26:29.813Z,31.10
2018-08-31T15:28:58.361Z,41.37
2018-08-31T15:31:27.393Z,30.83
2018-08-31T15:33:55.843Z,32.17
2018-08-31T15:36:24.400Z,33.77
2018-08-31T15:38:53.076Z,31.40
2018-08-31T15:41:21.647Z,35.90
2018-08-31T15:43:50.210Z,38.17
2018-08-31T15:46:18.896Z,36.93
2018-08-31T15:48:47.460Z,35.77
2018-08-31T15:51:16.020Z,33.57
2018-08-31T15:53:45.283Z,30.33
2018-08-31T15:56:13.873Z,35.23
2018-08-31T15:58:42.447Z,35.97
2018-08-31T16:01:11.035Z,35.03
2018-08-31T16:03:39.601Z,37.37
2018-08-31T16:06:08.478Z,38.80
2018-08-31T16:08:37.148Z,37.17
2018-08-31T16:11:05.748Z,35.10
2018-08-31T16:13:34.299Z,37.10
2018-08-31T16:16:02.974Z,37.20
2018-08-31T16:18:31.844Z,38.17
2018-08-31T16:21:01.800Z,33.80
2018-08-31T16:23:31.713Z,32.50
2018-08-31T16:26:00.298Z,32.30
2018-08-31T16:28:28.863Z,33.77
2018-08-31T16:30:59.607Z,39.30
2018-08-31T16:33:28.210Z,38.47
2018-08-31T16:35:56.791Z,42.47
2018-08-31T16:38:25.467Z,36.70
2018-08-31T16:40:54.071Z,28.97
2018-08-31T16:43:23.039Z,34.77
2018-08-31T16:45:51.720Z,32.67
2018-08-31T16:48:20.312Z,29.40
2018-08-31T16:50:48.875Z,28.93
2018-08-31T16:53:17.695Z,28.40
2018-08-31T16:55:46.273Z,31.63
2018-08-31T16:58:14.839Z,26.07
2018-08-31T17:00:43.545Z,34.57
2018-08-31T17:03:12.207Z,27.97
2018-08-31T17:05:40.760Z,29.13
2018-08-31T17:08:09.640Z,34.17
2018-08-31T17:10:38.675Z,41.67
2018-08-31T17:13:07.251Z,29.63
2018-08-31T17:15:36.171Z,30.60
2018-08-31T17:18:04.794Z,37.53
2018-08-31T17:20:33.344Z,38.20
2018-08-31T17:23:02.264Z,33.83
2018-08-31T17:25:30.987Z,39.00
2018-08-31T17:28:05.011Z,36.17
2018-08-31T17:30:33.607Z,39.00
2018-08-31T17:33:07.660Z,30.70
2018-08-31T17:35:41.425Z,32.43
2018-08-31T17:38:10.992Z,36.90
2018-08-31T17:40:39.558Z,34.53
2018-08-31T17:43:08.159Z,36.57
2018-08-31T17:45:37.027Z,34.50
2018-08-31T17:48:05.708Z,44.03
2018-08-31T17:50:34.291Z,39.07
2018-08-31T17:53:03.279Z,36.80
2018-08-31T17:55:31.830Z,53.40
2018-08-31T17:58:00.391Z,35.93
2018-08-31T18:00:29.052Z,51.33
2018-08-31T18:02:57.636Z,34.27
2018-08-31T18:05:26.227Z,38.20
2018-08-31T18:07:55.208Z,33.90
2018-08-31T18:10:23.939Z,28.00
2018-08-31T18:12:52.511Z,27.37
2018-08-31T18:15:21.814Z,24.50
2018-08-31T18:17:50.340Z,38.23
2018-08-31T18:20:18.899Z,26.33
2018-08-31T18:22:48.567Z,32.37
2018-08-31T18:25:17.158Z,33.83
2018-08-31T18:27:45.710Z,23.67
2018-08-31T18:30:14.381Z,33.63
2018-08-31T18:32:42.935Z,31.17
2018-08-31T18:35:11.856Z,31.10
2018-08-31T18:37:46.375Z,30.10
2018-08-31T18:40:14.939Z,27.90
2018-08-31T18:42:43.511Z,31.37
2018-08-31T18:45:12.107Z,35.80
2018-08-31T18:47:40.722Z,33.63
2018-08-31T18:50:09.369Z,36.07
2018-08-31T18:52:38.199Z,43.83
2018-08-31T18:55:06.739Z,31.63
2018-08-31T18:57:35.311Z,32.00
2018-08-31T19:00:03.952Z,33.10
2018-08-31T19:02:32.516Z,39.00
2018-08-31T19:05:01.093Z,36.20
2018-08-31T19:07:29.792Z,38.13
2018-08-31T19:10:03.744Z,38.03
2018-08-31T19:12:32.644Z,30.77
2018-08-31T19:15:01.195Z,35.30
2018-08-31T19:17:29.832Z,42.50
2018-08-31T19:19:58.935Z,35.97
2018-08-31T19:22:27.507Z,36.13
2018-08-31T19:24:56.113Z,40.30
2018-08-31T19:27:25.060Z,35.03
2018-08-31T19:29:53.635Z,36.57
2018-08-31T19:32:22.389Z,41.27
2018-08-31T19:34:51.327Z,36.03
2018-08-31T19:37:19.943Z,40.87
2018-08-31T19:39:48.508Z,33.90
2018-08-31T19:42:17.192Z,32.30
2018-08-31T19:44:45.779Z,36.63
2018-08-31T19:47:14.357Z,41.70
2018-08-31T19:49:43.037Z,38.63
2018-08-31T19:52:11.607Z,43.20
2018-08-31T19:54:40.196Z,36.20
2018-08-31T19:57:09.095Z,36.63
2018-08-31T19:59:37.655Z,39.20
2018-08-31T20:02:07.013Z,36.73
2018-08-31T20:04:35.756Z,36.97
2018-08-31T20:07:04.318Z,37.57
2018-08-31T20:09:32.979Z,38.80
2018-08-31T20:12:01.760Z,47.43
2018-08-31T20:14:30.438Z,42.23
2018-08-31T20:16:59.020Z,51.63
2018-08-31T20:19:27.962Z,40.50
2018-08-31T20:21:56.841Z,45.20
2018-08-31T20:24:25.642Z,42.93
2018-08-31T20:26:54.355Z,42.60
2018-08-31T20:29:22.972Z,48.13
2018-08-31T20:31:51.687Z,44.80
2018-08-31T20:34:20.292Z,50.73
2018-08-31T20:36:48.851Z,52.33
2018-08-31T20:39:17.440Z,40.67
2018-08-31T20:41:46.168Z,55.97
2018-08-31T20:44:14.799Z,61.83
2018-08-31T20:46:43.358Z,54.23
2018-08-31T20:49:11.948Z,53.97
2018-08-31T20:51:40.571Z,48.73
2018-08-31T20:54:09.141Z,55.37
2018-08-31T20:56:37.838Z,46.20
2018-08-31T20:59:06.554Z,47.13
2018-08-31T21:01:35.467Z,47.70
2018-08-31T21:04:04.140Z,45.70
2018-08-31T21:06:32.935Z,51.67
2018-08-31T21:09:01.695Z,42.00
2018-08-31T21:11:30.720Z,46.43
2018-08-31T21:13:59.283Z,50.77
2018-08-31T21:16:27.855Z,46.13
2018-08-31T21:18:56.641Z,57.30
2018-08-31T21:21:25.215Z,54.10
2018-08-31T21:23:53.800Z,56.73
2018-08-31T21:26:22.655Z,47.27
2018-08-31T21:28:51.749Z,53.77
2018-08-31T21:31:20.348Z,50.83
2018-08-31T21:33:50.176Z,46.30
2018-08-31T21:36:18.739Z,50.90
2018-08-31T21:38:47.347Z,43.20
2018-08-31T21:41:15.943Z,51.17
2018-08-31T21:43:44.611Z,40.07
2018-08-31T21:46:14.609Z,42.23
2018-08-31T21:48:43.289Z,47.17
2018-08-31T21:51:12.008Z,52.33
2018-08-31T21:53:40.669Z,44.60
2018-08-31T21:56:09.339Z,40.00
2018-08-31T21:58:37.907Z,45.90
2018-08-31T22:01:11.787Z,41.90
2018-08-31T22:03:40.667Z,141.60
2018-08-31T22:06:09.416Z,123.17
2018-08-31T22:08:40.097Z,76.93
2018-08-31T22:11:08.827Z,65.23
2018-08-31T22:13:37.759Z,59.20
2018-08-31T22:16:06.851Z,67.37
2018-08-31T22:18:35.483Z,51.77
2018-08-31T22:21:04.539Z,54.53
2018-08-31T22:23:33.207Z,65.50
2018-08-31T22:26:01.852Z,59.07
2018-08-31T22:28:30.439Z,49.03
2018-08-31T22:30:59.083Z,53.10
2018-08-31T22:33:27.700Z,63.97
2018-08-31T22:35:56.275Z,62.33
2018-08-31T22:38:24.872Z,62.67
2018-08-31T22:40:53.599Z,61.93
2018-08-31T22:43:53.228Z,60.10
2018-08-31T22:46:22.879Z,54.70
2018-08-31T22:48:52.184Z,58.50
2018-08-31T22:51:22.251Z,54.97
2018-08-31T22:53:51.192Z,58.03
2018-08-31T22:56:19.783Z,59.73
2018-08-31T22:58:48.447Z,53.90
2018-08-31T23:01:17.027Z,67.80
2018-08-31T23:03:45.622Z,69.37
2018-08-31T23:06:14.299Z,63.23
2018-08-31T23:08:42.924Z,59.50
2018-08-31T23:11:12.567Z,62.77
2018-08-31T23:13:43.043Z,63.60
2018-08-31T23:16:11.632Z,55.20
2018-08-31T23:18:40.644Z,67.00
2018-08-31T23:21:10.171Z,66.90
2018-08-31T23:23:43.951Z,75.30
2018-08-31T23:26:12.594Z,69.67
2018-08-31T23:28:41.150Z,68.73
2018-08-31T23:31:09.732Z,74.23
2018-08-31T23:33:38.317Z,70.90
2018-08-31T23:36:06.886Z,80.67
2018-08-31T23:38:35.492Z,86.00
2018-08-31T23:41:04.235Z,67.60
2018-08-31T23:43:32.830Z,78.90
2018-08-31T23:46:01.424Z,73.47
2018-08-31T23:48:30.040Z,79.73
2018-08-31T23:50:58.623Z,72.90
2018-08-31T23:53:27.236Z,83.23
2018-08-31T23:55:55.840Z,75.17
2018-08-31T23:58:24.411Z,77.17
